首页
METAR-TAF:

METAR-TAF

机场 :

Colville Lake, 西北特區, 加拿大

纬度: 67-01-16N, 经度: 126-07-43W, 海拔: 274米

当前天气观测

该预报发布于1小时和14分钟前的16:00 UTC
风速6节,风向东转东南
温度 5°C
湿度 60%
气压 1019 hPa
能見度: 14.5公里
多云层高于7000英尺
阴天层高于9100英尺

METAR: CYVL 051600Z AUTO 12006KT 9SM BKN070 OVC091 05/M02 A3010 RMK SLP209

时间: 11:14 (17:14 UTC)


TAF: 丢失

超过4000个机场的气象观测和天气预报(METAR&TAF报告)。

可查询的气象台以黄色和红色小点在地图上表示。

将鼠标移到小点上方,可查看气象台名称。

然后点击查看天气观测和预报。

如需切换地图:点击带黑十字的绿色按钮放大地图;点击带横线的绿色按钮缩小地图;或者点击绿色箭头查看邻近地区的地图。


METAR-TAF: